Station Historical Data
Daily Summary for January 26, 2018 Units:  Both    English   Metric
« Previous Day
Next Day »
Daily Weekly Monthly Yearly Custom
  High: Low: Average:
Temperature: TemperatureF °F /  -17.8 °C 22.9 °F /  -5.1 °C 35.9 °F /  2.2 °C
Dew Point: DewpointF °F /  -17.8 °C 17.1 °F /  -8.3 °C 24.3 °F /  -4.3 °C
Humidity: Humidity% 48% 63%
Wind Speed: WindSpeedMPHmph /  0km/h - 2.9mph /  4.7km/h
Wind Gust: WindSpeedGustMPHmph /  0km/h - -
Wind- - South
Pressure: PressureIn in /  0 hPa 30.24 in /  1023.9 hPa -
Precipitation: 0.00 in /  0 mm    
Historical Graphs
 
 
Tabular Data for January 26, 2018
Time Temperature Dew Point Pressure Wind Wind Speed Wind Gust Humidity Rainfall Rate (Hourly)
TemperatureF °F /  -17.8 °C DewpointF °F /  -17.8 °C PressureInin /  0hPa Calm     Humidity% HourlyPrecipInin /  0mm
00:00 27.5 °F /  -2.5 °C 20.0 °F /  -6.7 °C 30.57in /  1035.1hPa Calm     73% 0.00in /  0mm
00:05 27.6 °F /  -2.4 °C 20.1 °F /  -6.6 °C 30.57in /  1035.1hPa Calm     73% 0.00in /  0mm
00:10 27.7 °F /  -2.4 °C 20.5 °F /  -6.4 °C 30.57in /  1035.1hPa Calm     74% 0.00in /  0mm
00:15 27.7 °F /  -2.4 °C 20.5 °F /  -6.4 °C 30.57in /  1035.1hPa Calm     74% 0.00in /  0mm
00:20 27.7 °F /  -2.4 °C 20.5 °F /  -6.4 °C 30.57in /  1035.1hPa Calm     74% 0.00in /  0mm
00:25 27.7 °F /  -2.4 °C 20.5 °F /  -6.4 °C 30.57in /  1035.1hPa Calm     74% 0.00in /  0mm
00:30 27.8 °F /  -2.3 °C 20.6 °F /  -6.3 °C 30.57in /  1035.1hPa Calm     74% 0.00in /  0mm
00:35 27.8 °F /  -2.3 °C 20.6 °F /  -6.3 °C 30.57in /  1035.1hPa Calm     74% 0.00in /  0mm
00:40 27.8 °F /  -2.3 °C 20.6 °F /  -6.3 °C 30.57in /  1035.1hPa Calm     74% 0.00in /  0mm
00:45 27.8 °F /  -2.3 °C 20.3 °F /  -6.5 °C 30.57in /  1035.1hPa Calm     73% 0.00in /  0mm
00:50 27.6 °F /  -2.4 °C 20.4 °F /  -6.4 °C 30.57in /  1035.1hPa Calm     74% 0.00in /  0mm
00:55 27.5 °F /  -2.5 °C 20.3 °F /  -6.5 °C 30.57in /  1035.1hPa Calm     74% 0.00in /  0mm
01:00 27.5 °F /  -2.5 °C 20.3 °F /  -6.5 °C 30.57in /  1035.1hPa Calm     74% 0.00in /  0mm
01:05 27.4 °F /  -2.6 °C 20.2 °F /  -6.6 °C 30.57in /  1035.1hPa Calm   4.0mph /  6.4km/h 74% 0.00in /  0mm
01:10 27.6 °F /  -2.4 °C 20.4 °F /  -6.4 °C 30.57in /  1035.1hPa SSW 1.0mph /  1.6km/h 4.0mph /  6.4km/h 74% 0.00in /  0mm
01:15 27.6 °F /  -2.4 °C 20.1 °F /  -6.6 °C 30.57in /  1035.1hPa SSW 2.0mph /  3.2km/h 4.0mph /  6.4km/h 73% 0.00in /  0mm
01:20 27.6 °F /  -2.4 °C 20.1 °F /  -6.6 °C 30.57in /  1035.1hPa SSW 2.0mph /  3.2km/h 3.0mph /  4.8km/h 73% 0.00in /  0mm
01:25 27.6 °F /  -2.4 °C 20.1 °F /  -6.6 °C 30.56in /  1034.8hPa SSW 1.0mph /  1.6km/h 3.0mph /  4.8km/h 73% 0.00in /  0mm
01:30 27.6 °F /  -2.4 °C 20.1 °F /  -6.6 °C 30.57in /  1035.1hPa SSW 2.0mph /  3.2km/h 3.0mph /  4.8km/h 73% 0.00in /  0mm
01:35 27.5 °F /  -2.5 °C 20.0 °F /  -6.7 °C 30.57in /  1035.1hPa South 5.0mph /  8km/h 5.0mph /  8km/h 73% 0.00in /  0mm
01:40 27.5 °F /  -2.5 °C 20.0 °F /  -6.7 °C 30.57in /  1035.1hPa South 2.0mph /  3.2km/h 5.0mph /  8km/h 73% 0.00in /  0mm
01:45 27.5 °F /  -2.5 °C 20.0 °F /  -6.7 °C 30.57in /  1035.1hPa South 2.0mph /  3.2km/h 5.0mph /  8km/h 73% 0.00in /  0mm
01:50 27.4 °F /  -2.6 °C 19.9 °F /  -6.7 °C 30.57in /  1035.1hPa South 1.0mph /  1.6km/h 4.0mph /  6.4km/h 73% 0.00in /  0mm
01:55 27.3 °F /  -2.6 °C 19.8 °F /  -6.8 °C 30.57in /  1035.1hPa South 1.0mph /  1.6km/h 4.0mph /  6.4km/h 73% 0.00in /  0mm
02:00 27.3 °F /  -2.6 °C 19.8 °F /  -6.8 °C 30.57in /  1035.1hPa South 1.0mph /  1.6km/h 5.0mph /  8km/h 73% 0.00in /  0mm
02:05 27.3 °F /  -2.6 °C 19.8 °F /  -6.8 °C 30.57in /  1035.1hPa South 2.0mph /  3.2km/h 4.0mph /  6.4km/h 73% 0.00in /  0mm
02:10 27.1 °F /  -2.7 °C 19.6 °F /  -6.9 °C 30.57in /  1035.1hPa South 3.0mph /  4.8km/h 4.0mph /  6.4km/h 73% 0.00in /  0mm
02:15 26.9 °F /  -2.8 °C 19.4 °F /  -7 °C 30.56in /  1034.8hPa South 1.0mph /  1.6km/h 4.0mph /  6.4km/h 73% 0.00in /  0mm
02:20 26.6 °F /  -3 °C 19.4 °F /  -7 °C 30.56in /  1034.8hPa Calm   4.0mph /  6.4km/h 74% 0.00in /  0mm
02:25 26.3 °F /  -3.2 °C 19.1 °F /  -7.2 °C 30.56in /  1034.8hPa South 1.0mph /  1.6km/h 4.0mph /  6.4km/h 74% 0.00in /  0mm
02:30 26.1 °F /  -3.3 °C 18.9 °F /  -7.3 °C 30.56in /  1034.8hPa Calm   3.0mph /  4.8km/h 74% 0.00in /  0mm
02:35 26.0 °F /  -3.3 °C 18.8 °F /  -7.3 °C 30.56in /  1034.8hPa South 1.0mph /  1.6km/h 3.0mph /  4.8km/h 74% 0.00in /  0mm
02:40 25.7 °F /  -3.5 °C 18.6 °F /  -7.4 °C 30.56in /  1034.8hPa South 1.0mph /  1.6km/h 3.0mph /  4.8km/h 74% 0.00in /  0mm
02:45 25.5 °F /  -3.6 °C 18.4 °F /  -7.6 °C 30.56in /  1034.8hPa Calm   2.0mph /  3.2km/h 74% 0.00in /  0mm
02:50 25.3 °F /  -3.7 °C 18.5 °F /  -7.5 °C 30.56in /  1034.8hPa South 1.0mph /  1.6km/h 3.0mph /  4.8km/h 75% 0.00in /  0mm
02:55 25.3 °F /  -3.7 °C 18.5 °F /  -7.5 °C 30.56in /  1034.8hPa South 1.0mph /  1.6km/h 3.0mph /  4.8km/h 75% 0.00in /  0mm
03:00 25.1 °F /  -3.8 °C 18.3 °F /  -7.6 °C 30.56in /  1034.8hPa Calm   3.0mph /  4.8km/h 75% 0.00in /  0mm
03:05 25.0 °F /  -3.9 °C 18.2 °F /  -7.7 °C 30.56in /  1034.8hPa South 2.0mph /  3.2km/h 3.0mph /  4.8km/h 75% 0.00in /  0mm
03:10 25.0 °F /  -3.9 °C 18.2 °F /  -7.7 °C 30.56in /  1034.8hPa Calm   4.0mph /  6.4km/h 75% 0.00in /  0mm
03:15 24.9 °F /  -3.9 °C 18.1 °F /  -7.7 °C 30.56in /  1034.8hPa South 1.0mph /  1.6km/h 3.0mph /  4.8km/h 75% 0.00in /  0mm
03:20 24.7 °F /  -4.1 °C 17.9 °F /  -7.8 °C 30.56in /  1034.8hPa South 1.0mph /  1.6km/h 3.0mph /  4.8km/h 75% 0.00in /  0mm
03:25 24.7 °F /  -4.1 °C 18.2 °F /  -7.7 °C 30.56in /  1034.8hPa South 1.0mph /  1.6km/h 3.0mph /  4.8km/h 76% 0.00in /  0mm
03:30 24.5 °F /  -4.2 °C 18.0 °F /  -7.8 °C 30.56in /  1034.8hPa South 1.0mph /  1.6km/h 4.0mph /  6.4km/h 76% 0.00in /  0mm
03:35 24.5 °F /  -4.2 °C 18.0 °F /  -7.8 °C 30.56in /  1034.8hPa South 1.0mph /  1.6km/h 4.0mph /  6.4km/h 76% 0.00in /  0mm
03:40 24.3 °F /  -4.3 °C 17.8 °F /  -7.9 °C 30.55in /  1034.4hPa Calm   2.0mph /  3.2km/h 76% 0.00in /  0mm
03:50 24.1 °F /  -4.4 °C 17.9 °F /  -7.8 °C 30.55in /  1034.4hPa South 1.0mph /  1.6km/h 4.0mph /  6.4km/h 77% 0.00in /  0mm
03:55 24.1 °F /  -4.4 °C 17.9 °F /  -7.8 °C 30.55in /  1034.4hPa South 1.0mph /  1.6km/h 4.0mph /  6.4km/h 77% 0.00in /  0mm
04:00 24.1 °F /  -4.4 °C 17.9 °F /  -7.8 °C 30.55in /  1034.4hPa South 1.0mph /  1.6km/h 3.0mph /  4.8km/h 77% 0.00in /  0mm
04:05 24.0 °F /  -4.4 °C 17.8 °F /  -7.9 °C 30.55in /  1034.4hPa Calm   4.0mph /  6.4km/h 77% 0.00in /  0mm
04:10 24.0 °F /  -4.4 °C 17.8 °F /  -7.9 °C 30.55in /  1034.4hPa South 1.0mph /  1.6km/h 4.0mph /  6.4km/h 77% 0.00in /  0mm
04:15 23.9 °F /  -4.5 °C 17.7 °F /  -7.9 °C 30.55in /  1034.4hPa South 1.0mph /  1.6km/h 4.0mph /  6.4km/h 77% 0.00in /  0mm
04:20 23.8 °F /  -4.6 °C 17.6 °F /  -8 °C 30.55in /  1034.4hPa Calm   4.0mph /  6.4km/h 77% 0.00in /  0mm
04:25 23.8 °F /  -4.6 °C 17.6 °F /  -8 °C 30.55in /  1034.4hPa SSE 1.0mph /  1.6km/h 4.0mph /  6.4km/h 77% 0.00in /  0mm
04:30 23.7 °F /  -4.6 °C 17.5 °F /  -8.1 °C 30.55in /  1034.4hPa SSE 1.0mph /  1.6km/h 4.0mph /  6.4km/h 77% 0.00in /  0mm
04:35 23.5 °F /  -4.7 °C 17.3 °F /  -8.2 °C 30.55in /  1034.4hPa SSE 1.0mph /  1.6km/h 3.0mph /  4.8km/h 77% 0.00in /  0mm
04:40 23.5 °F /  -4.7 °C 17.3 °F /  -8.2 °C 30.55in /  1034.4hPa Calm   3.0mph /  4.8km/h 77% 0.00in /  0mm
04:45 23.5 °F /  -4.7 °C 17.6 °F /  -8 °C 30.54in /  1034.1hPa SSE 2.0mph /  3.2km/h 3.0mph /  4.8km/h 78% 0.00in /  0mm
04:50 23.4 °F /  -4.8 °C 17.6 °F /  -8 °C 30.54in /  1034.1hPa SSE 2.0mph /  3.2km/h 4.0mph /  6.4km/h 78% 0.00in /  0mm
04:55 23.4 °F /  -4.8 °C 17.6 °F /  -8 °C 30.54in /  1034.1hPa SSE 1.0mph /  1.6km/h 4.0mph /  6.4km/h 78% 0.00in /  0mm
05:00 23.4 °F /  -4.8 °C 17.6 °F /  -8 °C 30.54in /  1034.1hPa SSE 1.0mph /  1.6km/h 4.0mph /  6.4km/h 78% 0.00in /  0mm
05:05 23.4 °F /  -4.8 °C 17.6 °F /  -8 °C 30.54in /  1034.1hPa SE 2.0mph /  3.2km/h 4.0mph /  6.4km/h 78% 0.00in /  0mm
05:10 23.3 °F /  -4.8 °C 17.2 °F /  -8.2 °C 30.54in /  1034.1hPa SE 2.0mph /  3.2km/h 4.0mph /  6.4km/h 77% 0.00in /  0mm
05:15 23.2 °F /  -4.9 °C 17.4 °F /  -8.1 °C 30.54in /  1034.1hPa SE 1.0mph /  1.6km/h 4.0mph /  6.4km/h 78% 0.00in /  0mm
05:20 23.1 °F /  -4.9 °C 17.3 °F /  -8.2 °C 30.54in /  1034.1hPa SE 1.0mph /  1.6km/h 4.0mph /  6.4km/h 78% 0.00in /  0mm
05:25 23.1 °F /  -4.9 °C 17.3 °F /  -8.2 °C 30.54in /  1034.1hPa SE 2.0mph /  3.2km/h 4.0mph /  6.4km/h 78% 0.00in /  0mm
05:30 23.0 °F /  -5 °C 17.2 °F /  -8.2 °C 30.54in /  1034.1hPa Calm   4.0mph /  6.4km/h 78% 0.00in /  0mm
05:35 23.0 °F /  -5 °C 17.2 °F /  -8.2 °C 30.54in /  1034.1hPa SE 2.0mph /  3.2km/h 4.0mph /  6.4km/h 78% 0.00in /  0mm
05:40 23.0 °F /  -5 °C 17.2 °F /  -8.2 °C 30.53in /  1033.7hPa SE 2.0mph /  3.2km/h 5.0mph /  8km/h 78% 0.00in /  0mm
05:45 23.0 °F /  -5 °C 17.2 °F /  -8.2 °C 30.53in /  1033.7hPa SE 3.0mph /  4.8km/h 5.0mph /  8km/h 78% 0.00in /  0mm
05:50 23.0 °F /  -5 °C 17.2 °F /  -8.2 °C 30.53in /  1033.7hPa SE 2.0mph /  3.2km/h 5.0mph /  8km/h 78% 0.00in /  0mm
05:55 23.0 °F /  -5 °C 17.2 °F /  -8.2 °C 30.53in /  1033.7hPa SE 3.0mph /  4.8km/h 5.0mph /  8km/h 78% 0.00in /  0mm
06:00 23.0 °F /  -5 °C 17.2 °F /  -8.2 °C 30.53in /  1033.7hPa SE 2.0mph /  3.2km/h 5.0mph /  8km/h 78% 0.00in /  0mm
06:05 23.1 °F /  -4.9 °C 17.3 °F /  -8.2 °C 30.53in /  1033.7hPa SE 2.0mph /  3.2km/h 5.0mph /  8km/h 78% 0.00in /  0mm
06:10 23.1 °F /  -4.9 °C 17.3 °F /  -8.2 °C 30.53in /  1033.7hPa SE 2.0mph /  3.2km/h 5.0mph /  8km/h 78% 0.00in /  0mm
06:15 22.9 °F /  -5.1 °C 17.1 °F /  -8.3 °C 30.53in /  1033.7hPa SE 1.0mph /  1.6km/h 4.0mph /  6.4km/h 78% 0.00in /  0mm
06:20 22.9 °F /  -5.1 °C 17.1 °F /  -8.3 °C 30.53in /  1033.7hPa SE 1.0mph /  1.6km/h 4.0mph /  6.4km/h 78% 0.00in /  0mm
06:25 23.0 °F /  -5 °C 17.2 °F /  -8.2 °C 30.53in /  1033.7hPa ESE 1.0mph /  1.6km/h 4.0mph /  6.4km/h 78% 0.00in /  0mm
06:30 23.0 °F /  -5 °C 17.2 °F /  -8.2 °C 30.53in /  1033.7hPa ESE 1.0mph /  1.6km/h 5.0mph /  8km/h 78% 0.00in /  0mm
06:35 23.0 °F /  -5 °C 17.2 °F /  -8.2 °C 30.53in /  1033.7hPa ESE 1.0mph /  1.6km/h 5.0mph /  8km/h 78% 0.00in /  0mm
06:40 23.0 °F /  -5 °C 17.2 °F /  -8.2 °C 30.53in /  1033.7hPa ESE 1.0mph /  1.6km/h 4.0mph /  6.4km/h 78% 0.00in /  0mm
06:45 23.0 °F /  -5 °C 17.2 °F /  -8.2 °C 30.53in /  1033.7hPa Calm   5.0mph /  8km/h 78% 0.00in /  0mm
06:50 23.0 °F /  -5 °C 17.2 °F /  -8.2 °C 30.53in /  1033.7hPa ESE 3.0mph /  4.8km/h 7.0mph /  11.3km/h 78% 0.00in /  0mm
06:55 23.1 °F /  -4.9 °C 17.3 °F /  -8.2 °C 30.53in /  1033.7hPa ESE 1.0mph /  1.6km/h 5.0mph /  8km/h 78% 0.00in /  0mm
07:00 23.2 °F /  -4.9 °C 17.4 °F /  -8.1 °C 30.53in /  1033.7hPa ESE 2.0mph /  3.2km/h 5.0mph /  8km/h 78% 0.00in /  0mm
07:05 23.2 °F /  -4.9 °C 17.4 °F /  -8.1 °C 30.53in /  1033.7hPa ESE 2.0mph /  3.2km/h 5.0mph /  8km/h 78% 0.00in /  0mm
07:10 23.2 °F /  -4.9 °C 17.4 °F /  -8.1 °C 30.52in /  1033.4hPa ESE 2.0mph /  3.2km/h 5.0mph /  8km/h 78% 0.00in /  0mm
07:15 23.2 °F /  -4.9 °C 17.4 °F /  -8.1 °C 30.53in /  1033.7hPa ESE 2.0mph /  3.2km/h 7.0mph /  11.3km/h 78% 0.00in /  0mm
07:20 23.3 °F /  -4.8 °C 17.5 °F /  -8.1 °C 30.52in /  1033.4hPa ESE 2.0mph /  3.2km/h 7.0mph /  11.3km/h 78% 0.00in /  0mm
07:25 23.4 °F /  -4.8 °C 17.6 °F /  -8 °C 30.52in /  1033.4hPa ESE 2.0mph /  3.2km/h 5.0mph /  8km/h 78% 0.00in /  0mm
07:30 23.4 °F /  -4.8 °C 17.6 °F /  -8 °C 30.52in /  1033.4hPa ESE 2.0mph /  3.2km/h 6.0mph /  9.7km/h 78% 0.00in /  0mm
07:35 23.5 °F /  -4.7 °C 17.3 °F /  -8.2 °C 30.52in /  1033.4hPa ESE 3.0mph /  4.8km/h 5.0mph /  8km/h 77% 0.00in /  0mm
07:40 23.5 °F /  -4.7 °C 17.6 °F /  -8 °C 30.52in /  1033.4hPa ESE 1.0mph /  1.6km/h 6.0mph /  9.7km/h 78% 0.00in /  0mm
07:45 23.6 °F /  -4.7 °C 17.4 °F /  -8.1 °C 30.52in /  1033.4hPa ESE 2.0mph /  3.2km/h 5.0mph /  8km/h 77% 0.00in /  0mm
07:50 23.7 °F /  -4.6 °C 17.5 °F /  -8.1 °C 30.52in /  1033.4hPa ESE 1.0mph /  1.6km/h 4.0mph /  6.4km/h 77% 0.00in /  0mm
07:55 23.7 °F /  -4.6 °C 17.5 °F /  -8.1 °C 30.52in /  1033.4hPa Calm   4.0mph /  6.4km/h 77% 0.00in /  0mm
08:00 23.7 °F /  -4.6 °C 17.5 °F /  -8.1 °C 30.52in /  1033.4hPa East 1.0mph /  1.6km/h 7.0mph /  11.3km/h 77% 0.00in /  0mm
08:05 23.8 °F /  -4.6 °C 17.9 °F /  -7.8 °C 30.52in /  1033.4hPa ESE 2.0mph /  3.2km/h 7.0mph /  11.3km/h 78% 0.00in /  0mm
08:10 24.0 °F /  -4.4 °C 17.8 °F /  -7.9 °C 30.52in /  1033.4hPa ESE 2.0mph /  3.2km/h 5.0mph /  8km/h 77% 0.00in /  0mm
08:15 24.0 °F /  -4.4 °C 17.8 °F /  -7.9 °C 30.52in /  1033.4hPa ESE 1.0mph /  1.6km/h 5.0mph /  8km/h 77% 0.00in /  0mm
08:20 24.3 °F /  -4.3 °C 18.1 °F /  -7.7 °C 30.52in /  1033.4hPa ESE 1.0mph /  1.6km/h 6.0mph /  9.7km/h 77% 0.00in /  0mm
08:25 24.6 °F /  -4.1 °C 18.4 °F /  -7.6 °C 30.51in /  1033.1hPa ESE 2.0mph /  3.2km/h 6.0mph /  9.7km/h 77% 0.00in /  0mm
08:30 24.9 °F /  -3.9 °C 18.7 °F /  -7.4 °C 30.51in /  1033.1hPa ESE 2.0mph /  3.2km/h 5.0mph /  8km/h 77% 0.00in /  0mm
08:35 25.1 °F /  -3.8 °C 18.6 °F /  -7.4 °C 30.51in /  1033.1hPa ESE 2.0mph /  3.2km/h 5.0mph /  8km/h 76% 0.00in /  0mm
08:40 25.4 °F /  -3.7 °C 18.9 °F /  -7.3 °C 30.51in /  1033.1hPa Calm   5.0mph /  8km/h 76% 0.00in /  0mm
08:45 25.7 °F /  -3.5 °C 19.2 °F /  -7.1 °C 30.51in /  1033.1hPa SE 1.0mph /  1.6km/h 4.0mph /  6.4km/h 76% 0.00in /  0mm
08:50 26.1 °F /  -3.3 °C 19.3 °F /  -7.1 °C 30.51in /  1033.1hPa Calm   3.0mph /  4.8km/h 75% 0.00in /  0mm
08:55 26.4 °F /  -3.1 °C 19.5 °F /  -6.9 °C 30.51in /  1033.1hPa ESE 2.0mph /  3.2km/h 7.0mph /  11.3km/h 75% 0.00in /  0mm
09:00 26.9 °F /  -2.8 °C 19.7 °F /  -6.8 °C 30.51in /  1033.1hPa ESE 2.0mph /  3.2km/h 5.0mph /  8km/h 74% 0.00in /  0mm
09:05 27.3 °F /  -2.6 °C 20.1 °F /  -6.6 °C 30.51in /  1033.1hPa ESE 1.0mph /  1.6km/h 5.0mph /  8km/h 74% 0.00in /  0mm
09:10 27.6 °F /  -2.4 °C 20.1 °F /  -6.6 °C 30.50in /  1032.7hPa ESE 2.0mph /  3.2km/h 5.0mph /  8km/h 73% 0.00in /  0mm
09:15 28.1 °F /  -2.2 °C 20.6 °F /  -6.3 °C 30.51in /  1033.1hPa SE 2.0mph /  3.2km/h 7.0mph /  11.3km/h 73% 0.00in /  0mm
09:20 28.4 °F /  -2 °C 20.5 °F /  -6.4 °C 30.51in /  1033.1hPa South 2.0mph /  3.2km/h 6.0mph /  9.7km/h 72% 0.00in /  0mm
09:25 28.9 °F /  -1.7 °C 21.0 °F /  -6.1 °C 30.51in /  1033.1hPa SE 3.0mph /  4.8km/h 6.0mph /  9.7km/h 72% 0.00in /  0mm
09:30 29.3 °F /  -1.5 °C 21.1 °F /  -6.1 °C 30.50in /  1032.7hPa SE 3.0mph /  4.8km/h 6.0mph /  9.7km/h 71% 0.00in /  0mm
09:35 29.7 °F /  -1.3 °C 21.1 °F /  -6.1 °C 30.50in /  1032.7hPa SE 3.0mph /  4.8km/h 6.0mph /  9.7km/h 70% 0.00in /  0mm
09:40 30.1 °F /  -1.1 °C 21.5 °F /  -5.8 °C 30.50in /  1032.7hPa SSE 3.0mph /  4.8km/h 6.0mph /  9.7km/h 70% 0.00in /  0mm
09:45 30.9 °F /  -0.6 °C 21.9 °F /  -5.6 °C 30.50in /  1032.7hPa SE 4.0mph /  6.4km/h 4.0mph /  6.4km/h 69% 0.00in /  0mm
09:50 31.2 °F /  -0.4 °C 22.2 °F /  -5.4 °C 30.50in /  1032.7hPa SE 1.0mph /  1.6km/h 6.0mph /  9.7km/h 69% 0.00in /  0mm
09:55 31.8 °F /  -0.1 °C 22.4 °F /  -5.3 °C 30.50in /  1032.7hPa SE 4.0mph /  6.4km/h 6.0mph /  9.7km/h 68% 0.00in /  0mm
10:00 32.2 °F /  0.1 °C 22.5 °F /  -5.3 °C 30.50in /  1032.7hPa ESE 2.0mph /  3.2km/h 5.0mph /  8km/h 67% 0.00in /  0mm
10:05 32.5 °F /  0.3 °C 22.4 °F /  -5.3 °C 30.50in /  1032.7hPa SE 6.0mph /  9.7km/h 7.0mph /  11.3km/h 66% 0.00in /  0mm
10:10 32.9 °F /  0.5 °C 22.8 °F /  -5.1 °C 30.50in /  1032.7hPa SE 3.0mph /  4.8km/h 7.0mph /  11.3km/h 66% 0.00in /  0mm
10:15 33.4 °F /  0.8 °C 23.3 °F /  -4.8 °C 30.49in /  1032.4hPa SE 3.0mph /  4.8km/h 6.0mph /  9.7km/h 66% 0.00in /  0mm
10:20 34.0 °F /  1.1 °C 23.5 °F /  -4.7 °C 30.49in /  1032.4hPa SE 3.0mph /  4.8km/h 5.0mph /  8km/h 65% 0.00in /  0mm
10:25 34.8 °F /  1.6 °C 23.9 °F /  -4.5 °C 30.49in /  1032.4hPa SSE 2.0mph /  3.2km/h 5.0mph /  8km/h 64% 0.00in /  0mm
10:30 35.5 °F /  1.9 °C 24.5 °F /  -4.2 °C 30.49in /  1032.4hPa SE 2.0mph /  3.2km/h 5.0mph /  8km/h 64% 0.00in /  0mm
10:35 36.1 °F /  2.3 °C 24.7 °F /  -4.1 °C 30.49in /  1032.4hPa SSE 1.0mph /  1.6km/h 6.0mph /  9.7km/h 63% 0.00in /  0mm
10:40 36.9 °F /  2.7 °C 25.5 °F /  -3.6 °C 30.49in /  1032.4hPa SSE 4.0mph /  6.4km/h 5.0mph /  8km/h 63% 0.00in /  0mm
10:45 37.3 °F /  2.9 °C 24.7 °F /  -4.1 °C 30.49in /  1032.4hPa South 4.0mph /  6.4km/h 6.0mph /  9.7km/h 60% 0.00in /  0mm
10:50 37.7 °F /  3.2 °C 25.5 °F /  -3.6 °C 30.49in /  1032.4hPa South 3.0mph /  4.8km/h 8.0mph /  12.9km/h 61% 0.00in /  0mm
10:55 38.3 °F /  3.5 °C 25.2 °F /  -3.8 °C 30.49in /  1032.4hPa SSW 4.0mph /  6.4km/h 10.0mph /  16.1km/h 59% 0.00in /  0mm
11:00 38.7 °F /  3.7 °C 25.2 °F /  -3.8 °C 30.48in /  1032.1hPa South 5.0mph /  8km/h 8.0mph /  12.9km/h 58% 0.00in /  0mm
11:05 39.3 °F /  4.1 °C 25.7 °F /  -3.5 °C 30.48in /  1032.1hPa SSE 6.0mph /  9.7km/h 8.0mph /  12.9km/h 58% 0.00in /  0mm
11:10 39.2 °F /  4 °C 25.6 °F /  -3.6 °C 30.48in /  1032.1hPa South 4.0mph /  6.4km/h 10.0mph /  16.1km/h 58% 0.00in /  0mm
11:15 39.4 °F /  4.1 °C 25.4 °F /  -3.7 °C 30.47in /  1031.7hPa South 5.0mph /  8km/h 10.0mph /  16.1km/h 57% 0.00in /  0mm
11:20 39.7 °F /  4.3 °C 25.7 °F /  -3.5 °C 30.47in /  1031.7hPa South 5.0mph /  8km/h 9.0mph /  14.5km/h 57% 0.00in /  0mm
11:25 40.5 °F /  4.7 °C 26.0 °F /  -3.3 °C 30.47in /  1031.7hPa SSW 4.0mph /  6.4km/h 9.0mph /  14.5km/h 56% 0.00in /  0mm
11:30 40.4 °F /  4.7 °C 25.9 °F /  -3.4 °C 30.47in /  1031.7hPa South 5.0mph /  8km/h 9.0mph /  14.5km/h 56% 0.00in /  0mm
11:35 40.4 °F /  4.7 °C 25.5 °F /  -3.6 °C 30.46in /  1031.4hPa SSW 5.0mph /  8km/h 9.0mph /  14.5km/h 55% 0.00in /  0mm
11:40 40.5 °F /  4.7 °C 26.0 °F /  -3.3 °C 30.46in /  1031.4hPa SSW 4.0mph /  6.4km/h 8.0mph /  12.9km/h 56% 0.00in /  0mm
11:45 40.7 °F /  4.8 °C 26.2 °F /  -3.2 °C 30.46in /  1031.4hPa SSW 4.0mph /  6.4km/h 7.0mph /  11.3km/h 56% 0.00in /  0mm
11:50 41.1 °F /  5.1 °C 26.6 °F /  -3 °C 30.45in /  1031hPa South 7.0mph /  11.3km/h 8.0mph /  12.9km/h 56% 0.00in /  0mm
11:55 41.4 °F /  5.2 °C 26.4 °F /  -3.1 °C 30.44in /  1030.7hPa South 5.0mph /  8km/h 8.0mph /  12.9km/h 55% 0.00in /  0mm
12:00 41.9 °F /  5.5 °C 26.4 °F /  -3.1 °C 30.44in /  1030.7hPa South 5.0mph /  8km/h 7.0mph /  11.3km/h 54% 0.00in /  0mm
12:05 42.0 °F /  5.6 °C 26.5 °F /  -3.1 °C 30.44in /  1030.7hPa South 3.0mph /  4.8km/h 7.0mph /  11.3km/h 54% 0.00in /  0mm
12:10 42.5 °F /  5.8 °C 27.0 °F /  -2.8 °C 30.44in /  1030.7hPa SW 2.0mph /  3.2km/h 7.0mph /  11.3km/h 54% 0.00in /  0mm
12:15 43.2 °F /  6.2 °C 27.7 °F /  -2.4 °C 30.43in /  1030.4hPa SSW 4.0mph /  6.4km/h 7.0mph /  11.3km/h 54% 0.00in /  0mm
12:20 43.2 °F /  6.2 °C 27.2 °F /  -2.7 °C 30.43in /  1030.4hPa SSW 3.0mph /  4.8km/h 8.0mph /  12.9km/h 53% 0.00in /  0mm
12:25 43.3 °F /  6.3 °C 27.3 °F /  -2.6 °C 30.43in /  1030.4hPa SSW 4.0mph /  6.4km/h 8.0mph /  12.9km/h 53% 0.00in /  0mm
12:30 43.6 °F /  6.4 °C 27.6 °F /  -2.4 °C 30.43in /  1030.4hPa SSW 4.0mph /  6.4km/h 9.0mph /  14.5km/h 53% 0.00in /  0mm
12:35 44.2 °F /  6.8 °C 28.1 °F /  -2.2 °C 30.42in /  1030hPa SSW 4.0mph /  6.4km/h 9.0mph /  14.5km/h 53% 0.00in /  0mm
12:40 44.3 °F /  6.8 °C 27.8 °F /  -2.3 °C 30.42in /  1030hPa South 4.0mph /  6.4km/h 7.0mph /  11.3km/h 52% 0.00in /  0mm
12:45 44.4 °F /  6.9 °C 27.9 °F /  -2.3 °C 30.42in /  1030hPa SSW 5.0mph /  8km/h 8.0mph /  12.9km/h 52% 0.00in /  0mm
12:50 44.6 °F /  7 °C 28.0 °F /  -2.2 °C 30.42in /  1030hPa SE 7.0mph /  11.3km/h 7.0mph /  11.3km/h 52% 0.00in /  0mm
12:55 44.3 °F /  6.8 °C 27.8 °F /  -2.3 °C 30.41in /  1029.7hPa South 6.0mph /  9.7km/h 9.0mph /  14.5km/h 52% 0.00in /  0mm
13:00 44.5 °F /  6.9 °C 28.0 °F /  -2.2 °C 30.41in /  1029.7hPa South 2.0mph /  3.2km/h 8.0mph /  12.9km/h 52% 0.00in /  0mm
13:05 45.1 °F /  7.3 °C 28.5 °F /  -1.9 °C 30.41in /  1029.7hPa South 5.0mph /  8km/h 7.0mph /  11.3km/h 52% 0.00in /  0mm
13:10 45.1 °F /  7.3 °C 28.0 °F /  -2.2 °C 30.41in /  1029.7hPa SSW 4.0mph /  6.4km/h 9.0mph /  14.5km/h 51% 0.00in /  0mm
13:15 45.5 °F /  7.5 °C 28.4 °F /  -2 °C 30.41in /  1029.7hPa SSW 4.0mph /  6.4km/h 9.0mph /  14.5km/h 51% 0.00in /  0mm
13:20 45.6 °F /  7.6 °C 29.0 °F /  -1.7 °C 30.41in /  1029.7hPa SSW 4.0mph /  6.4km/h 7.0mph /  11.3km/h 52% 0.00in /  0mm
13:25 46.3 °F /  7.9 °C 29.1 °F /  -1.6 °C 30.41in /  1029.7hPa South 3.0mph /  4.8km/h 6.0mph /  9.7km/h 51% 0.00in /  0mm
13:30 46.5 °F /  8.1 °C 28.8 °F /  -1.8 °C 30.40in /  1029.3hPa SSW 3.0mph /  4.8km/h 8.0mph /  12.9km/h 50% 0.00in /  0mm
13:35 46.2 °F /  7.9 °C 28.6 °F /  -1.9 °C 30.40in /  1029.3hPa SSW 4.0mph /  6.4km/h 8.0mph /  12.9km/h 50% 0.00in /  0mm
13:40 46.3 °F /  7.9 °C 28.7 °F /  -1.8 °C 30.40in /  1029.3hPa SW 3.0mph /  4.8km/h 8.0mph /  12.9km/h 50% 0.00in /  0mm
13:45 46.5 °F /  8.1 °C 29.3 °F /  -1.5 °C 30.40in /  1029.3hPa SSW 4.0mph /  6.4km/h 9.0mph /  14.5km/h 51% 0.00in /  0mm
13:50 46.7 °F /  8.2 °C 29.5 °F /  -1.4 °C 30.39in /  1029hPa SSW 3.0mph /  4.8km/h 10.0mph /  16.1km/h 51% 0.00in /  0mm
13:55 47.0 °F /  8.3 °C 29.3 °F /  -1.5 °C 30.39in /  1029hPa SSE 6.0mph /  9.7km/h 8.0mph /  12.9km/h 50% 0.00in /  0mm
14:00 47.1 °F /  8.4 °C 28.9 °F /  -1.7 °C 30.39in /  1029hPa South 7.0mph /  11.3km/h 11.0mph /  17.7km/h 49% 0.00in /  0mm
14:05 47.0 °F /  8.3 °C 29.3 °F /  -1.5 °C 30.39in /  1029hPa South 7.0mph /  11.3km/h 11.0mph /  17.7km/h 50% 0.00in /  0mm
14:10 47.1 °F /  8.4 °C 29.9 °F /  -1.2 °C 30.38in /  1028.7hPa South 4.0mph /  6.4km/h 10.0mph /  16.1km/h 51% 0.00in /  0mm
14:15 47.4 °F /  8.6 °C 29.7 °F /  -1.3 °C 30.38in /  1028.7hPa South 5.0mph /  8km/h 10.0mph /  16.1km/h 50% 0.00in /  0mm
14:20 47.5 °F /  8.6 °C 29.3 °F /  -1.5 °C 30.38in /  1028.7hPa South 5.0mph /  8km/h 10.0mph /  16.1km/h 49% 0.00in /  0mm
14:25 47.7 °F /  8.7 °C 29.5 °F /  -1.4 °C 30.38in /  1028.7hPa SSW 4.0mph /  6.4km/h 9.0mph /  14.5km/h 49% 0.00in /  0mm
14:30 47.6 °F /  8.7 °C 29.4 °F /  -1.4 °C 30.38in /  1028.7hPa SW 6.0mph /  9.7km/h 8.0mph /  12.9km/h 49% 0.00in /  0mm
14:35 47.6 °F /  8.7 °C 29.9 °F /  -1.2 °C 30.38in /  1028.7hPa WSW 4.0mph /  6.4km/h 9.0mph /  14.5km/h 50% 0.00in /  0mm
14:40 47.5 °F /  8.6 °C 29.3 °F /  -1.5 °C 30.38in /  1028.7hPa SSW 5.0mph /  8km/h 11.0mph /  17.7km/h 49% 0.00in /  0mm
14:45 47.2 °F /  8.4 °C 29.5 °F /  -1.4 °C 30.37in /  1028.3hPa South 7.0mph /  11.3km/h 13.0mph /  20.9km/h 50% 0.00in /  0mm
14:50 47.0 °F /  8.3 °C 29.3 °F /  -1.5 °C 30.37in /  1028.3hPa South 10.0mph /  16.1km/h 11.0mph /  17.7km/h 50% 0.00in /  0mm
14:55 47.4 °F /  8.6 °C 30.2 °F /  -1 °C 30.37in /  1028.3hPa SW 8.0mph /  12.9km/h 10.0mph /  16.1km/h 51% 0.00in /  0mm
15:00 47.6 °F /  8.7 °C 30.3 °F /  -0.9 °C 30.37in /  1028.3hPa SSW 4.0mph /  6.4km/h 11.0mph /  17.7km/h 51% 0.00in /  0mm
15:05 47.8 °F /  8.8 °C 30.0 °F /  -1.1 °C 30.37in /  1028.3hPa South 6.0mph /  9.7km/h 10.0mph /  16.1km/h 50% 0.00in /  0mm
15:10 47.5 °F /  8.6 °C 29.3 °F /  -1.5 °C 30.37in /  1028.3hPa SSW 5.0mph /  8km/h 9.0mph /  14.5km/h 49% 0.00in /  0mm
15:15 47.5 °F /  8.6 °C 29.8 °F /  -1.2 °C 30.37in /  1028.3hPa SSW 5.0mph /  8km/h 9.0mph /  14.5km/h 50% 0.00in /  0mm
15:20 47.9 °F /  8.8 °C 30.1 °F /  -1.1 °C 30.37in /  1028.3hPa SSW 4.0mph /  6.4km/h 9.0mph /  14.5km/h 50% 0.00in /  0mm
15:25 47.6 °F /  8.7 °C 29.9 °F /  -1.2 °C 30.37in /  1028.3hPa SSE 7.0mph /  11.3km/h 9.0mph /  14.5km/h 50% 0.00in /  0mm
15:35 47.6 °F /  8.7 °C 29.9 °F /  -1.2 °C 30.37in /  1028.3hPa SSW 4.0mph /  6.4km/h 12.0mph /  19.3km/h 50% 0.00in /  0mm
15:40 47.4 °F /  8.6 °C 29.7 °F /  -1.3 °C 30.37in /  1028.3hPa SW 7.0mph /  11.3km/h 8.0mph /  12.9km/h 50% 0.00in /  0mm
15:45 47.5 °F /  8.6 °C 29.8 °F /  -1.2 °C 30.37in /  1028.3hPa SW 4.0mph /  6.4km/h 6.0mph /  9.7km/h 50% 0.00in /  0mm
15:50 47.3 °F /  8.5 °C 29.6 °F /  -1.3 °C 30.37in /  1028.3hPa SSW 4.0mph /  6.4km/h 11.0mph /  17.7km/h 50% 0.00in /  0mm
15:55 47.0 °F /  8.3 °C 29.8 °F /  -1.2 °C 30.37in /  1028.3hPa SSW 2.0mph /  3.2km/h 8.0mph /  12.9km/h 51% 0.00in /  0mm
16:00 47.0 °F /  8.3 °C 29.8 °F /  -1.2 °C 30.37in /  1028.3hPa SSW 4.0mph /  6.4km/h 11.0mph /  17.7km/h 51% 0.00in /  0mm
16:05 46.7 °F /  8.2 °C 29.5 °F /  -1.4 °C 30.37in /  1028.3hPa SSW 4.0mph /  6.4km/h 11.0mph /  17.7km/h 51% 0.00in /  0mm
16:10 46.6 °F /  8.1 °C 29.9 °F /  -1.2 °C 30.36in /  1028hPa SW 5.0mph /  8km/h 10.0mph /  16.1km/h 52% 0.00in /  0mm
16:15 46.5 °F /  8.1 °C 29.8 °F /  -1.2 °C 30.36in /  1028hPa South 2.0mph /  3.2km/h 8.0mph /  12.9km/h 52% 0.00in /  0mm
16:20 46.4 °F /  8 °C 29.7 °F /  -1.3 °C 30.36in /  1028hPa SSW 4.0mph /  6.4km/h 8.0mph /  12.9km/h 52% 0.00in /  0mm
16:25 46.1 °F /  7.8 °C 29.4 °F /  -1.4 °C 30.36in /  1028hPa SSW 4.0mph /  6.4km/h 8.0mph /  12.9km/h 52% 0.00in /  0mm
16:30 45.9 °F /  7.7 °C 29.7 °F /  -1.3 °C 30.36in /  1028hPa SSW 4.0mph /  6.4km/h 8.0mph /  12.9km/h 53% 0.00in /  0mm
16:35 45.6 °F /  7.6 °C 29.4 °F /  -1.4 °C 30.36in /  1028hPa SSW 3.0mph /  4.8km/h 8.0mph /  12.9km/h 53% 0.00in /  0mm
16:40 45.4 °F /  7.4 °C 29.7 °F /  -1.3 °C 30.36in /  1028hPa SSW 4.0mph /  6.4km/h 8.0mph /  12.9km/h 54% 0.00in /  0mm
16:45 45.2 °F /  7.3 °C 29.5 °F /  -1.4 °C 30.35in /  1027.7hPa South 4.0mph /  6.4km/h 5.0mph /  8km/h 54% 0.00in /  0mm
16:50 44.7 °F /  7.1 °C 29.5 °F /  -1.4 °C 30.36in /  1028hPa South 3.0mph /  4.8km/h 5.0mph /  8km/h 55% 0.00in /  0mm
16:55 44.4 °F /  6.9 °C 29.2 °F /  -1.6 °C 30.36in /  1028hPa South 3.0mph /  4.8km/h 8.0mph /  12.9km/h 55% 0.00in /  0mm
17:00 44.3 °F /  6.8 °C 29.6 °F /  -1.3 °C 30.36in /  1028hPa SSW 3.0mph /  4.8km/h 6.0mph /  9.7km/h 56% 0.00in /  0mm
17:05 44.0 °F /  6.7 °C 29.3 °F /  -1.5 °C 30.36in /  1028hPa SSW 3.0mph /  4.8km/h 6.0mph /  9.7km/h 56% 0.00in /  0mm
17:10 43.8 °F /  6.6 °C 29.1 °F /  -1.6 °C 30.36in /  1028hPa South 1.0mph /  1.6km/h 5.0mph /  8km/h 56% 0.00in /  0mm
17:15 43.5 °F /  6.4 °C 29.3 °F /  -1.5 °C 30.36in /  1028hPa SSW 1.0mph /  1.6km/h 4.0mph /  6.4km/h 57% 0.00in /  0mm
17:20 43.3 °F /  6.3 °C 29.1 °F /  -1.6 °C 30.36in /  1028hPa South 1.0mph /  1.6km/h 5.0mph /  8km/h 57% 0.00in /  0mm
17:25 43.1 °F /  6.2 °C 28.9 °F /  -1.7 °C 30.35in /  1027.7hPa South 2.0mph /  3.2km/h 5.0mph /  8km/h 57% 0.00in /  0mm
17:30 43.0 °F /  6.1 °C 29.2 °F /  -1.6 °C 30.35in /  1027.7hPa South 2.0mph /  3.2km/h 4.0mph /  6.4km/h 58% 0.00in /  0mm
17:35 43.0 °F /  6.1 °C 29.2 °F /  -1.6 °C 30.35in /  1027.7hPa South 2.0mph /  3.2km/h 4.0mph /  6.4km/h 58% 0.00in /  0mm
17:40 42.8 °F /  6 °C 29.0 °F /  -1.7 °C 30.35in /  1027.7hPa SSE 2.0mph /  3.2km/h 4.0mph /  6.4km/h 58% 0.00in /  0mm
17:45 42.8 °F /  6 °C 29.0 °F /  -1.7 °C 30.35in /  1027.7hPa SSE 1.0mph /  1.6km/h 3.0mph /  4.8km/h 58% 0.00in /  0mm
17:50 42.5 °F /  5.8 °C 28.8 °F /  -1.8 °C 30.35in /  1027.7hPa Calm   2.0mph /  3.2km/h 58% 0.00in /  0mm
17:55 42.3 °F /  5.7 °C 29.0 °F /  -1.7 °C 30.34in /  1027.3hPa SSE 3.0mph /  4.8km/h 3.0mph /  4.8km/h 59% 0.00in /  0mm
18:00 42.1 °F /  5.6 °C 28.8 °F /  -1.8 °C 30.34in /  1027.3hPa SSE 1.0mph /  1.6km/h 3.0mph /  4.8km/h 59% 0.00in /  0mm
18:04 41.9 °F /  5.5 °C 29.0 °F /  -1.7 °C 30.34in /  1027.3hPa Calm   3.0mph /  4.8km/h 60% 0.00in /  0mm
18:10 41.9 °F /  5.5 °C 29.0 °F /  -1.7 °C 30.34in /  1027.3hPa Calm   4.0mph /  6.4km/h 60% 0.00in /  0mm
18:15 41.8 °F /  5.4 °C 29.3 °F /  -1.5 °C 30.34in /  1027.3hPa SSE 1.0mph /  1.6km/h 5.0mph /  8km/h 61% 0.00in /  0mm
18:20 41.7 °F /  5.4 °C 29.2 °F /  -1.6 °C 30.34in /  1027.3hPa SSE 3.0mph /  4.8km/h 4.0mph /  6.4km/h 61% 0.00in /  0mm
18:25 41.6 °F /  5.3 °C 29.1 °F /  -1.6 °C 30.34in /  1027.3hPa SSE 1.0mph /  1.6km/h 4.0mph /  6.4km/h 61% 0.00in /  0mm
18:30 41.6 °F /  5.3 °C 29.5 °F /  -1.4 °C 30.34in /  1027.3hPa SSE 2.0mph /  3.2km/h 5.0mph /  8km/h 62% 0.00in /  0mm
18:35 41.5 °F /  5.3 °C 29.0 °F /  -1.7 °C 30.33in /  1027hPa SSE 2.0mph /  3.2km/h 5.0mph /  8km/h 61% 0.00in /  0mm
18:40 41.3 °F /  5.2 °C 29.3 °F /  -1.5 °C 30.33in /  1027hPa SSE 2.0mph /  3.2km/h 5.0mph /  8km/h 62% 0.00in /  0mm
18:45 41.5 °F /  5.3 °C 29.0 °F /  -1.7 °C 30.33in /  1027hPa South 2.0mph /  3.2km/h 5.0mph /  8km/h 61% 0.00in /  0mm
18:50 41.5 °F /  5.3 °C 29.0 °F /  -1.7 °C 30.33in /  1027hPa South 3.0mph /  4.8km/h 5.0mph /  8km/h 61% 0.00in /  0mm
18:55 41.3 °F /  5.2 °C 28.9 °F /  -1.7 °C 30.33in /  1027hPa South 2.0mph /  3.2km/h 5.0mph /  8km/h 61% 0.00in /  0mm
19:00 41.2 °F /  5.1 °C 29.2 °F /  -1.6 °C 30.32in /  1026.6hPa South 3.0mph /  4.8km/h 6.0mph /  9.7km/h 62% 0.00in /  0mm
19:05 41.1 °F /  5.1 °C 29.1 °F /  -1.6 °C 30.32in /  1026.6hPa South 3.0mph /  4.8km/h 6.0mph /  9.7km/h 62% 0.00in /  0mm
19:10 41.1 °F /  5.1 °C 29.1 °F /  -1.6 °C 30.32in /  1026.6hPa South 3.0mph /  4.8km/h 6.0mph /  9.7km/h 62% 0.00in /  0mm
19:14 40.7 °F /  4.8 °C 28.7 °F /  -1.8 °C 30.32in /  1026.6hPa South 3.0mph /  4.8km/h 4.0mph /  6.4km/h 62% 0.00in /  0mm
19:20 40.3 °F /  4.6 °C 28.7 °F /  -1.8 °C 30.31in /  1026.3hPa SSW 1.0mph /  1.6km/h 6.0mph /  9.7km/h 63% 0.00in /  0mm
19:25 40.6 °F /  4.8 °C 29.0 °F /  -1.7 °C 30.32in /  1026.6hPa South 5.0mph /  8km/h 6.0mph /  9.7km/h 63% 0.00in /  0mm
19:30 40.6 °F /  4.8 °C 29.0 °F /  -1.7 °C 30.31in /  1026.3hPa South 3.0mph /  4.8km/h 5.0mph /  8km/h 63% 0.00in /  0mm
19:35 40.6 °F /  4.8 °C 29.0 °F /  -1.7 °C 30.31in /  1026.3hPa SSW 7.0mph /  11.3km/h 7.0mph /  11.3km/h 63% 0.00in /  0mm
19:39 41.1 °F /  5.1 °C 29.1 °F /  -1.6 °C 30.31in /  1026.3hPa South 3.0mph /  4.8km/h 7.0mph /  11.3km/h 62% 0.00in /  0mm
19:45 41.5 °F /  5.3 °C 29.0 °F /  -1.7 °C 30.31in /  1026.3hPa SSW 3.0mph /  4.8km/h 7.0mph /  11.3km/h 61% 0.00in /  0mm
19:50 41.9 °F /  5.5 °C 29.4 °F /  -1.4 °C 30.31in /  1026.3hPa South 5.0mph /  8km/h 7.0mph /  11.3km/h 61% 0.00in /  0mm
19:55 42.5 °F /  5.8 °C 29.6 °F /  -1.3 °C 30.31in /  1026.3hPa SSW 4.0mph /  6.4km/h 8.0mph /  12.9km/h 60% 0.00in /  0mm
20:00 42.8 °F /  6 °C 29.9 °F /  -1.2 °C 30.31in /  1026.3hPa SSW 4.0mph /  6.4km/h 10.0mph /  16.1km/h 60% 0.00in /  0mm
20:05 43.0 °F /  6.1 °C 29.6 °F /  -1.3 °C 30.31in /  1026.3hPa SSW 4.0mph /  6.4km/h 10.0mph /  16.1km/h 59% 0.00in /  0mm
20:10 43.0 °F /  6.1 °C 29.6 °F /  -1.3 °C 30.31in /  1026.3hPa SSW 4.0mph /  6.4km/h 10.0mph /  16.1km/h 59% 0.00in /  0mm
20:14 43.2 °F /  6.2 °C 29.8 °F /  -1.2 °C 30.31in /  1026.3hPa SSW 4.0mph /  6.4km/h 9.0mph /  14.5km/h 59% 0.00in /  0mm
20:19 43.3 °F /  6.3 °C 29.9 °F /  -1.2 °C 30.31in /  1026.3hPa SSW 2.0mph /  3.2km/h 9.0mph /  14.5km/h 59% 0.00in /  0mm
20:25 43.4 °F /  6.3 °C 30.0 °F /  -1.1 °C 30.31in /  1026.3hPa South 3.0mph /  4.8km/h 7.0mph /  11.3km/h 59% 0.00in /  0mm
20:30 43.6 °F /  6.4 °C 30.2 °F /  -1 °C 30.31in /  1026.3hPa SSW 3.0mph /  4.8km/h 10.0mph /  16.1km/h 59% 0.00in /  0mm
20:35 43.8 °F /  6.6 °C 30.0 °F /  -1.1 °C 30.31in /  1026.3hPa South 3.0mph /  4.8km/h 8.0mph /  12.9km/h 58% 0.00in /  0mm
20:40 44.1 °F /  6.7 °C 30.3 °F /  -0.9 °C 30.30in /  1026hPa SW 2.0mph /  3.2km/h 10.0mph /  16.1km/h 58% 0.00in /  0mm
20:45 44.3 °F /  6.8 °C 30.0 °F /  -1.1 °C 30.30in /  1026hPa SSW 4.0mph /  6.4km/h 13.0mph /  20.9km/h 57% 0.00in /  0mm
20:49 44.6 °F /  7 °C 30.3 °F /  -0.9 °C 30.30in /  1026hPa SSW 5.0mph /  8km/h 13.0mph /  20.9km/h 57% 0.00in /  0mm
20:54 44.8 °F /  7.1 °C 30.0 °F /  -1.1 °C 30.30in /  1026hPa SSW 5.0mph /  8km/h 14.0mph /  22.5km/h 56% 0.00in /  0mm
21:00 44.9 °F /  7.2 °C 30.1 °F /  -1.1 °C 30.30in /  1026hPa SSW 5.0mph /  8km/h 14.0mph /  22.5km/h 56% 0.00in /  0mm
21:05 44.7 °F /  7.1 °C 30.0 °F /  -1.1 °C 30.30in /  1026hPa SSW 4.0mph /  6.4km/h 14.0mph /  22.5km/h 56% 0.00in /  0mm
21:09 44.7 °F /  7.1 °C 30.0 °F /  -1.1 °C 30.31in /  1026.3hPa South 8.0mph /  12.9km/h 10.0mph /  16.1km/h 56% 0.00in /  0mm
21:14 44.8 °F /  7.1 °C 30.0 °F /  -1.1 °C 30.30in /  1026hPa South 3.0mph /  4.8km/h 10.0mph /  16.1km/h 56% 0.00in /  0mm
21:19 44.9 °F /  7.2 °C 29.7 °F /  -1.3 °C 30.30in /  1026hPa West 8.0mph /  12.9km/h 11.0mph /  17.7km/h 55% 0.00in /  0mm
21:24 44.8 °F /  7.1 °C 29.6 °F /  -1.3 °C 30.30in /  1026hPa SSW 5.0mph /  8km/h 11.0mph /  17.7km/h 55% 0.00in /  0mm
21:30 44.8 °F /  7.1 °C 29.6 °F /  -1.3 °C 30.30in /  1026hPa SSW 5.0mph /  8km/h 15.0mph /  24.1km/h 55% 0.00in /  0mm
21:35 44.9 °F /  7.2 °C 29.7 °F /  -1.3 °C 30.29in /  1025.6hPa SSW 4.0mph /  6.4km/h 9.0mph /  14.5km/h 55% 0.00in /  0mm
21:40 45.1 °F /  7.3 °C 29.4 °F /  -1.4 °C 30.29in /  1025.6hPa SSW 5.0mph /  8km/h 10.0mph /  16.1km/h 54% 0.00in /  0mm
21:45 45.2 °F /  7.3 °C 29.5 °F /  -1.4 °C 30.29in /  1025.6hPa South 7.0mph /  11.3km/h 14.0mph /  22.5km/h 54% 0.00in /  0mm
21:50 45.2 °F /  7.3 °C 29.5 °F /  -1.4 °C 30.29in /  1025.6hPa SSW 3.0mph /  4.8km/h 14.0mph /  22.5km/h 54% 0.00in /  0mm
21:54 45.1 °F /  7.3 °C 29.4 °F /  -1.4 °C 30.29in /  1025.6hPa SSW 5.0mph /  8km/h 14.0mph /  22.5km/h 54% 0.00in /  0mm
21:59 45.1 °F /  7.3 °C 29.4 °F /  -1.4 °C 30.29in /  1025.6hPa SSW 6.0mph /  9.7km/h 18.0mph /  29km/h 54% 0.00in /  0mm
22:04 45.2 °F /  7.3 °C 29.1 °F /  -1.6 °C 30.29in /  1025.6hPa South 8.0mph /  12.9km/h 15.0mph /  24.1km/h 53% 0.00in /  0mm
22:09 45.4 °F /  7.4 °C 29.3 °F /  -1.5 °C 30.28in /  1025.3hPa SW 8.0mph /  12.9km/h 13.0mph /  20.9km/h 53% 0.00in /  0mm
22:14 45.4 °F /  7.4 °C 29.3 °F /  -1.5 °C 30.28in /  1025.3hPa South 4.0mph /  6.4km/h 11.0mph /  17.7km/h 53% 0.00in /  0mm
22:19 45.3 °F /  7.4 °C 29.2 °F /  -1.6 °C 30.28in /  1025.3hPa South 4.0mph /  6.4km/h 13.0mph /  20.9km/h 53% 0.00in /  0mm
22:24 45.4 °F /  7.4 °C 28.8 °F /  -1.8 °C 30.27in /  1024.9hPa SSW 6.0mph /  9.7km/h 14.0mph /  22.5km/h 52% 0.00in /  0mm
22:29 45.5 °F /  7.5 °C 28.9 °F /  -1.7 °C 30.27in /  1024.9hPa SSW 7.0mph /  11.3km/h 14.0mph /  22.5km/h 52% 0.00in /  0mm
22:35 45.4 °F /  7.4 °C 28.8 °F /  -1.8 °C 30.27in /  1024.9hPa SSW 6.0mph /  9.7km/h 13.0mph /  20.9km/h 52% 0.00in /  0mm
22:40 45.4 °F /  7.4 °C 28.8 °F /  -1.8 °C 30.27in /  1024.9hPa SSW 4.0mph /  6.4km/h 16.0mph /  25.7km/h 52% 0.00in /  0mm
22:45 45.4 °F /  7.4 °C 28.8 °F /  -1.8 °C 30.27in /  1024.9hPa SSW 6.0mph /  9.7km/h 11.0mph /  17.7km/h 52% 0.00in /  0mm
22:50 45.3 °F /  7.4 °C 28.7 °F /  -1.8 °C 30.27in /  1024.9hPa SSW 6.0mph /  9.7km/h 9.0mph /  14.5km/h 52% 0.00in /  0mm
22:55 45.2 °F /  7.3 °C 28.6 °F /  -1.9 °C 30.26in /  1024.6hPa South 5.0mph /  8km/h 13.0mph /  20.9km/h 52% 0.00in /  0mm
22:59 45.4 °F /  7.4 °C 28.8 °F /  -1.8 °C 30.26in /  1024.6hPa SSW 6.0mph /  9.7km/h 15.0mph /  24.1km/h 52% 0.00in /  0mm
23:04 45.7 °F /  7.6 °C 28.6 °F /  -1.9 °C 30.26in /  1024.6hPa SSW 7.0mph /  11.3km/h 16.0mph /  25.7km/h 51% 0.00in /  0mm
23:10 45.9 °F /  7.7 °C 28.3 °F /  -2.1 °C 30.26in /  1024.6hPa SSW 7.0mph /  11.3km/h 16.0mph /  25.7km/h 50% 0.00in /  0mm
23:15 45.9 °F /  7.7 °C 28.3 °F /  -2.1 °C 30.26in /  1024.6hPa SSW 7.0mph /  11.3km/h 16.0mph /  25.7km/h 50% 0.00in /  0mm
23:19 46.0 °F /  7.8 °C 28.4 °F /  -2 °C 30.25in /  1024.3hPa SW 5.0mph /  8km/h 17.0mph /  27.4km/h 50% 0.00in /  0mm
23:24 46.0 °F /  7.8 °C 27.9 °F /  -2.3 °C 30.25in /  1024.3hPa SSW 4.0mph /  6.4km/h 15.0mph /  24.1km/h 49% 0.00in /  0mm
23:29 46.0 °F /  7.8 °C 27.9 °F /  -2.3 °C 30.25in /  1024.3hPa South 5.0mph /  8km/h 13.0mph /  20.9km/h 49% 0.00in /  0mm
23:34 46.0 °F /  7.8 °C 27.9 °F /  -2.3 °C 30.24in /  1023.9hPa SSW 6.0mph /  9.7km/h 16.0mph /  25.7km/h 49% 0.00in /  0mm
23:39 46.1 °F /  7.8 °C 28.0 °F /  -2.2 °C 30.25in /  1024.3hPa SSW 6.0mph /  9.7km/h 16.0mph /  25.7km/h 49% 0.00in /  0mm
23:44 46.2 °F /  7.9 °C 27.6 °F /  -2.4 °C 30.25in /  1024.3hPa SSW 5.0mph /  8km/h 14.0mph /  22.5km/h 48% 0.00in /  0mm
23:49 46.4 °F /  8 °C 27.8 °F /  -2.3 °C 30.24in /  1023.9hPa SSW 4.0mph /  6.4km/h 13.0mph /  20.9km/h 48% 0.00in /  0mm
23:55 46.5 °F /  8.1 °C 27.8 °F /  -2.3 °C 30.25in /  1024.3hPa South 8.0mph /  12.9km/h 14.0mph /  22.5km/h 48% 0.00in /  0mm
Buffalo, New York, USA
Compliments of Weather Underground - 2.5 mb